PWSweather.com
Personal Weather Stations
Station Observations
KCOFALCO8
Falcon Hills, Falcon, CO 80831

Falcon HillsFalcon, CO 80831

Lat: 38.979792, Lon: -104.61195

Elevation: 7170

Station Type: AcuRite Pro 5-in-1

http://wx.frazierhome.net/

Latest ConditionsUpdated 1:17:04 AM MST Thursday, Dec 12, 2019
Currently Today's Max Today's Min Today's Average
Temperature 33.4°F0.8°C 33.5°F0.8°C 32.4°F0.2°C 33.1°F0.6°C
Dew Point 16.1°F-8.8°C 16.6°F-8.6°C 15.6°F-9.1°C 16.3°F-8.7°C
Winds 10.0 mph W16.1 kmh W 12.0 mph -19.3 kmh - - 7.2 mph 11.6 kmh
Wind Gusts -- -- - -
Humidity 49% 50% 49% 50%
Pressure 30.01 in1016.3 mb 30.01 in1016.3 mb 29.99 in1015.6 mb -
Hour Temp Dew Point Humidity Winds Wind Gusts Pressure Precip Precip Rate Daily Precip Total
01:17 AM 33.4°F0.8°C 16.1°F-8.8°C 49% 10.0 mph W16.1 kmh W -- 30.01 in1016.3 mb 0.00 in0.0 mm 0.00 in0.0 mm 0.00 in0.0 mm
01:16 AM 33.5°F0.8°C 16.1°F-8.8°C 49% 7.0 mph NW11.3 kmh NW -- 30.01 in1016.3 mb 0.00 in0.0 mm 0.00 in0.0 mm 0.00 in0.0 mm
01:15 AM 33.5°F0.8°C 16.1°F-8.8°C 49% 5.0 mph NW8.0 kmh NW -- 30.01 in1016.3 mb 0.00 in0.0 mm 0.00 in0.0 mm 0.00 in0.0 mm
01:14 AM 33.5°F0.8°C 16.1°F-8.8°C 49% 9.0 mph W14.5 kmh W -- 30.00 in1015.9 mb 0.00 in0.0 mm 0.00 in0.0 mm 0.00 in0.0 mm
01:13 AM 33.5°F0.8°C 16.1°F-8.8°C 49% 9.0 mph W14.5 kmh W -- 30.01 in1016.3 mb 0.00 in0.0 mm 0.00 in0.0 mm 0.00 in0.0 mm
01:12 AM 33.5°F0.8°C 16.1°F-8.8°C 49% 7.0 mph SW11.3 kmh SW -- 30.01 in1016.3 mb 0.00 in0.0 mm 0.00 in0.0 mm 0.00 in0.0 mm
01:11 AM 33.5°F0.8°C 16.1°F-8.8°C 49% 9.0 mph WNW14.5 kmh WNW -- 30.01 in1016.3 mb 0.00 in0.0 mm 0.00 in0.0 mm 0.00 in0.0 mm
01:10 AM 33.5°F0.8°C 16.1°F-8.8°C 49% 6.0 mph W9.7 kmh W -- 30.00 in1015.9 mb 0.00 in0.0 mm 0.00 in0.0 mm 0.00 in0.0 mm
01:09 AM 33.4°F0.8°C 16.1°F-8.8°C 49% 12.0 mph WNW19.3 kmh WNW -- 30.00 in1015.9 mb 0.00 in0.0 mm 0.00 in0.0 mm 0.00 in0.0 mm
01:08 AM 33.4°F0.8°C 16.1°F-8.8°C 49% 9.0 mph W14.5 kmh W -- 30.00 in1015.9 mb 0.00 in0.0 mm 0.00 in0.0 mm 0.00 in0.0 mm
01:07 AM 33.2°F0.7°C 16.4°F-8.7°C 50% 11.0 mph W17.7 kmh W -- 30.01 in1016.3 mb 0.00 in0.0 mm 0.00 in0.0 mm 0.00 in0.0 mm
01:06 AM 33.2°F0.7°C 16.4°F-8.7°C 50% 9.0 mph WNW14.5 kmh WNW -- 30.01 in1016.3 mb 0.00 in0.0 mm 0.00 in0.0 mm 0.00 in0.0 mm
01:05 AM 33.2°F0.7°C 16.4°F-8.7°C 50% 8.0 mph WNW12.9 kmh WNW -- 30.01 in1016.3 mb 0.00 in0.0 mm 0.00 in0.0 mm 0.00 in0.0 mm
01:04 AM 33.2°F0.7°C 16.4°F-8.7°C 50% 8.0 mph W12.9 kmh W -- 30.00 in1015.9 mb 0.00 in0.0 mm 0.00 in0.0 mm 0.00 in0.0 mm
01:03 AM 33.2°F0.7°C 16.4°F-8.7°C 50% 7.0 mph W11.3 kmh W -- 30.00 in1015.9 mb 0.00 in0.0 mm 0.00 in0.0 mm 0.00 in0.0 mm
01:02 AM 33.2°F0.7°C 16.4°F-8.7°C 50% 10.0 mph WNW16.1 kmh WNW -- 30.00 in1015.9 mb 0.00 in0.0 mm 0.00 in0.0 mm 0.00 in0.0 mm
01:01 AM 33.2°F0.7°C 16.4°F-8.7°C 50% 9.0 mph WNW14.5 kmh WNW -- 30.00 in1015.9 mb 0.00 in0.0 mm 0.00 in0.0 mm 0.00 in0.0 mm
01:00 AM 33.2°F0.7°C 16.4°F-8.7°C 50% 6.0 mph W9.7 kmh W -- 30.00 in1015.9 mb 0.00 in0.0 mm 0.00 in0.0 mm 0.00 in0.0 mm
12:59 AM 33.2°F0.7°C 16.4°F-8.7°C 50% 6.0 mph W9.7 kmh W -- 30.01 in1016.3 mb 0.00 in0.0 mm 0.00 in0.0 mm 0.00 in0.0 mm
12:58 AM 33.2°F0.7°C 16.4°F-8.7°C 50% 7.0 mph WNW11.3 kmh WNW -- 30.01 in1016.3 mb 0.00 in0.0 mm 0.00 in0.0 mm 0.00 in0.0 mm
12:57 AM 33.4°F0.8°C 16.6°F-8.6°C 50% 8.0 mph WNW12.9 kmh WNW -- 30.01 in1016.3 mb 0.00 in0.0 mm 0.00 in0.0 mm 0.00 in0.0 mm
12:56 AM 33.4°F0.8°C 16.6°F-8.6°C 50% 6.0 mph W9.7 kmh W -- 30.00 in1015.9 mb 0.00 in0.0 mm 0.00 in0.0 mm 0.00 in0.0 mm
12:55 AM 33.4°F0.8°C 16.6°F-8.6°C 50% 9.0 mph NW14.5 kmh NW -- 30.00 in1015.9 mb 0.00 in0.0 mm 0.00 in0.0 mm 0.00 in0.0 mm
12:54 AM 33.4°F0.8°C 16.6°F-8.6°C 50% 7.0 mph WNW11.3 kmh WNW -- 30.00 in1015.9 mb 0.00 in0.0 mm 0.00 in0.0 mm 0.00 in0.0 mm
12:53 AM 33.4°F0.8°C 16.6°F-8.6°C 50% 5.0 mph WNW8.0 kmh WNW -- 30.00 in1015.9 mb 0.00 in0.0 mm 0.00 in0.0 mm 0.00 in0.0 mm
12:52 AM 33.4°F0.8°C 16.6°F-8.6°C 50% 7.0 mph W11.3 kmh W -- 30.00 in1015.9 mb 0.00 in0.0 mm 0.00 in0.0 mm 0.00 in0.0 mm
12:51 AM 33.4°F0.8°C 16.6°F-8.6°C 50% 8.0 mph WNW12.9 kmh WNW -- 30.00 in1015.9 mb 0.00 in0.0 mm 0.00 in0.0 mm 0.00 in0.0 mm
12:50 AM 33.4°F0.8°C 16.6°F-8.6°C 50% 5.0 mph NW8.0 kmh NW -- 30.00 in1015.9 mb 0.00 in0.0 mm 0.00 in0.0 mm 0.00 in0.0 mm
12:49 AM 33.4°F0.8°C 16.6°F-8.6°C 50% 8.0 mph NW12.9 kmh NW -- 30.01 in1016.3 mb 0.00 in0.0 mm 0.00 in0.0 mm 0.00 in0.0 mm
12:48 AM 33.2°F0.7°C 16.4°F-8.7°C 50% 7.0 mph WNW11.3 kmh WNW -- 30.00 in1015.9 mb 0.00 in0.0 mm 0.00 in0.0 mm 0.00 in0.0 mm
12:47 AM 33.2°F0.7°C 16.4°F-8.7°C 50% 7.0 mph NNW11.3 kmh NNW -- 30.00 in1015.9 mb 0.00 in0.0 mm 0.00 in0.0 mm 0.00 in0.0 mm
12:46 AM 33.0°F0.6°C 16.3°F-8.7°C 50% 7.0 mph WNW11.3 kmh WNW -- 30.00 in1015.9 mb 0.00 in0.0 mm 0.00 in0.0 mm 0.00 in0.0 mm
12:45 AM 33.0°F0.6°C 16.3°F-8.7°C 50% 9.0 mph WNW14.5 kmh WNW -- 30.00 in1015.9 mb 0.00 in0.0 mm 0.00 in0.0 mm 0.00 in0.0 mm
12:44 AM 33.0°F0.6°C 16.3°F-8.7°C 50% 7.0 mph WNW11.3 kmh WNW -- 30.00 in1015.9 mb 0.00 in0.0 mm 0.00 in0.0 mm 0.00 in0.0 mm
12:43 AM 33.0°F0.6°C 16.3°F-8.7°C 50% 5.0 mph NW8.0 kmh NW -- 30.00 in1015.9 mb 0.00 in0.0 mm 0.00 in0.0 mm 0.00 in0.0 mm
12:42 AM 33.0°F0.6°C 16.3°F-8.7°C 50% 6.0 mph NW9.7 kmh NW -- 30.00 in1015.9 mb 0.00 in0.0 mm 0.00 in0.0 mm 0.00 in0.0 mm
12:41 AM 33.2°F0.7°C 16.4°F-8.7°C 50% 5.0 mph W8.0 kmh W -- 30.00 in1015.9 mb 0.00 in0.0 mm 0.00 in0.0 mm 0.00 in0.0 mm
12:40 AM 33.2°F0.7°C 16.4°F-8.7°C 50% 5.0 mph W8.0 kmh W -- 29.99 in1015.6 mb 0.00 in0.0 mm 0.00 in0.0 mm 0.00 in0.0 mm
12:39 AM 33.2°F0.7°C 16.4°F-8.7°C 50% 9.0 mph NW14.5 kmh NW -- 30.00 in1015.9 mb 0.00 in0.0 mm 0.00 in0.0 mm 0.00 in0.0 mm
12:38 AM 33.2°F0.7°C 16.4°F-8.7°C 50% 6.0 mph W9.7 kmh W -- 30.00 in1015.9 mb 0.00 in0.0 mm 0.00 in0.0 mm 0.00 in0.0 mm
12:37 AM 33.2°F0.7°C 16.4°F-8.7°C 50% 5.0 mph WNW8.0 kmh WNW -- 30.00 in1015.9 mb 0.00 in0.0 mm 0.00 in0.0 mm 0.00 in0.0 mm
12:36 AM 33.4°F0.8°C 16.6°F-8.6°C 50% 7.0 mph NW11.3 kmh NW -- 30.00 in1015.9 mb 0.00 in0.0 mm 0.00 in0.0 mm 0.00 in0.0 mm
12:35 AM 33.4°F0.8°C 16.6°F-8.6°C 50% 7.0 mph W11.3 kmh W -- 30.00 in1015.9 mb 0.00 in0.0 mm 0.00 in0.0 mm 0.00 in0.0 mm
12:34 AM 33.4°F0.8°C 16.6°F-8.6°C 50% 8.0 mph WNW12.9 kmh WNW -- 30.00 in1015.9 mb 0.00 in0.0 mm 0.00 in0.0 mm 0.00 in0.0 mm
12:33 AM 33.4°F0.8°C 16.6°F-8.6°C 50% 9.0 mph W14.5 kmh W -- 30.00 in1015.9 mb 0.00 in0.0 mm 0.00 in0.0 mm 0.00 in0.0 mm
12:32 AM 33.2°F0.7°C 16.4°F-8.7°C 50% 6.0 mph NW9.7 kmh NW -- 30.00 in1015.9 mb 0.00 in0.0 mm 0.00 in0.0 mm 0.00 in0.0 mm
12:31 AM 33.2°F0.7°C 16.4°F-8.7°C 50% 6.0 mph WNW9.7 kmh WNW -- 30.00 in1015.9 mb 0.00 in0.0 mm 0.00 in0.0 mm 0.00 in0.0 mm
12:30 AM 33.2°F0.7°C 16.4°F-8.7°C 50% 7.0 mph W11.3 kmh W -- 30.00 in1015.9 mb 0.00 in0.0 mm 0.00 in0.0 mm 0.00 in0.0 mm
12:29 AM 33.2°F0.7°C 16.4°F-8.7°C 50% 8.0 mph NW12.9 kmh NW -- 30.00 in1015.9 mb 0.00 in0.0 mm 0.00 in0.0 mm 0.00 in0.0 mm
12:28 AM 33.2°F0.7°C 16.4°F-8.7°C 50% 7.0 mph WNW11.3 kmh WNW -- 30.00 in1015.9 mb 0.00 in0.0 mm 0.00 in0.0 mm 0.00 in0.0 mm
12:27 AM 33.2°F0.7°C 16.4°F-8.7°C 50% 11.0 mph WNW17.7 kmh WNW -- 30.00 in1015.9 mb 0.00 in0.0 mm 0.00 in0.0 mm 0.00 in0.0 mm
12:26 AM 33.2°F0.7°C 16.4°F-8.7°C 50% 6.0 mph W9.7 kmh W -- 30.00 in1015.9 mb 0.00 in0.0 mm 0.00 in0.0 mm 0.00 in0.0 mm
12:25 AM 33.0°F0.6°C 16.3°F-8.7°C 50% 7.0 mph W11.3 kmh W -- 30.00 in1015.9 mb 0.00 in0.0 mm 0.00 in0.0 mm 0.00 in0.0 mm
12:24 AM 32.9°F0.5°C 16.1°F-8.8°C 50% 8.0 mph WNW12.9 kmh WNW -- 30.00 in1015.9 mb 0.00 in0.0 mm 0.00 in0.0 mm 0.00 in0.0 mm
12:23 AM 32.9°F0.5°C 16.1°F-8.8°C 50% 9.0 mph WNW14.5 kmh WNW -- 30.00 in1015.9 mb 0.00 in0.0 mm 0.00 in0.0 mm 0.00 in0.0 mm
12:22 AM 32.9°F0.5°C 16.1°F-8.8°C 50% 9.0 mph NW14.5 kmh NW -- 30.00 in1015.9 mb 0.00 in0.0 mm 0.00 in0.0 mm 0.00 in0.0 mm
12:21 AM 32.9°F0.5°C 16.1°F-8.8°C 50% 6.0 mph NNW9.7 kmh NNW -- 30.00 in1015.9 mb 0.00 in0.0 mm 0.00 in0.0 mm 0.00 in0.0 mm
12:20 AM 33.0°F0.6°C 16.3°F-8.7°C 50% 6.0 mph W9.7 kmh W -- 30.00 in1015.9 mb 0.00 in0.0 mm 0.00 in0.0 mm 0.00 in0.0 mm
12:19 AM 33.0°F0.6°C 16.3°F-8.7°C 50% 5.0 mph W8.0 kmh W -- 30.00 in1015.9 mb 0.00 in0.0 mm 0.00 in0.0 mm 0.00 in0.0 mm
12:18 AM 33.0°F0.6°C 16.3°F-8.7°C 50% 7.0 mph WNW11.3 kmh WNW -- 30.00 in1015.9 mb 0.00 in0.0 mm 0.00 in0.0 mm 0.00 in0.0 mm
12:17 AM 33.0°F0.6°C 16.3°F-8.7°C 50% 6.0 mph W9.7 kmh W -- 30.00 in1015.9 mb 0.00 in0.0 mm 0.00 in0.0 mm 0.00 in0.0 mm
12:16 AM 33.0°F0.6°C 16.3°F-8.7°C 50% 6.0 mph NW9.7 kmh NW -- 30.00 in1015.9 mb 0.00 in0.0 mm 0.00 in0.0 mm 0.00 in0.0 mm
12:15 AM 33.0°F0.6°C 16.3°F-8.7°C 50% 6.0 mph WNW9.7 kmh WNW -- 29.99 in1015.6 mb 0.00 in0.0 mm 0.00 in0.0 mm 0.00 in0.0 mm
12:14 AM 33.0°F0.6°C 16.3°F-8.7°C 50% 7.0 mph WNW11.3 kmh WNW -- 30.00 in1015.9 mb 0.00 in0.0 mm 0.00 in0.0 mm 0.00 in0.0 mm
12:13 AM 33.0°F0.6°C 16.3°F-8.7°C 50% 8.0 mph WNW12.9 kmh WNW -- 30.00 in1015.9 mb 0.00 in0.0 mm 0.00 in0.0 mm 0.00 in0.0 mm
12:12 AM 33.0°F0.6°C 16.3°F-8.7°C 50% 6.0 mph WNW9.7 kmh WNW -- 30.00 in1015.9 mb 0.00 in0.0 mm 0.00 in0.0 mm 0.00 in0.0 mm
12:11 AM 33.0°F0.6°C 16.3°F-8.7°C 50% 7.0 mph WNW11.3 kmh WNW -- 30.00 in1015.9 mb 0.00 in0.0 mm 0.00 in0.0 mm 0.00 in0.0 mm
12:10 AM 33.0°F0.6°C 16.3°F-8.7°C 50% 6.0 mph NW9.7 kmh NW -- 30.00 in1015.9 mb 0.00 in0.0 mm 0.00 in0.0 mm 0.00 in0.0 mm
12:09 AM 33.0°F0.6°C 16.3°F-8.7°C 50% 6.0 mph WNW9.7 kmh WNW -- 30.00 in1015.9 mb 0.00 in0.0 mm 0.00 in0.0 mm 0.00 in0.0 mm
12:08 AM 32.9°F0.5°C 16.1°F-8.8°C 50% 5.0 mph W8.0 kmh W -- 30.00 in1015.9 mb 0.00 in0.0 mm 0.00 in0.0 mm 0.00 in0.0 mm
12:07 AM 32.6°F0.3°C 15.8°F-9.0°C 50% 10.0 mph W16.1 kmh W -- 30.00 in1015.9 mb 0.00 in0.0 mm 0.00 in0.0 mm 0.00 in0.0 mm
12:06 AM 32.5°F0.3°C 15.8°F-9.0°C 50% 8.0 mph 12.9 kmh -- 30.00 in1015.9 mb 0.00 in0.0 mm 0.00 in0.0 mm 0.00 in0.0 mm
12:05 AM 32.5°F0.3°C 15.8°F-9.0°C 50% 9.0 mph WNW14.5 kmh WNW -- 30.00 in1015.9 mb 0.00 in0.0 mm 0.00 in0.0 mm 0.00 in0.0 mm
12:04 AM 32.4°F0.2°C 15.6°F-9.1°C 50% 9.0 mph WNW14.5 kmh WNW -- 30.00 in1015.9 mb 0.00 in0.0 mm 0.00 in0.0 mm 0.00 in0.0 mm
12:02 AM 32.4°F0.2°C 15.6°F-9.1°C 50% 5.0 mph W8.0 kmh W -- 30.00 in1015.9 mb 0.00 in0.0 mm 0.00 in0.0 mm 0.00 in0.0 mm
12:01 AM 32.4°F0.2°C 15.6°F-9.1°C 50% 5.0 mph NNW8.0 kmh NNW -- 30.00 in1015.9 mb 0.00 in0.0 mm 0.00 in0.0 mm 0.00 in0.0 mm
12:00 AM 32.4°F0.2°C 15.6°F-9.1°C 50% 5.0 mph WNW8.0 kmh WNW -- 30.00 in1015.9 mb 0.00 in0.0 mm 0.00 in0.0 mm 0.00 in0.0 mm